sensor_id;sensor_type;location;lat;lon;timestamp;pressure;altitude;pressure_sealevel;temperature;humidity
13767;BME280;47980;48.794;9.176;2023-03-20T00:01:02;98467.84;;;10.78;100.00
13767;BME280;47980;48.794;9.176;2023-03-20T00:03:34;98468.50;;;10.66;100.00
13767;BME280;47980;48.794;9.176;2023-03-20T00:06:12;98475.53;;;10.62;100.00
13767;BME280;47980;48.794;9.176;2023-03-20T00:08:45;98471.94;;;10.58;100.00
13767;BME280;47980;48.794;9.176;2023-03-20T00:11:26;98473.34;;;10.64;100.00
13767;BME280;47980;48.794;9.176;2023-03-20T00:14:02;98469.25;;;10.67;100.00
13767;BME280;47980;48.794;9.176;2023-03-20T00:16:37;98473.50;;;10.68;100.00
13767;BME280;47980;48.794;9.176;2023-03-20T00:19:14;98473.66;;;10.71;100.00
13767;BME280;47980;48.794;9.176;2023-03-20T00:21:47;98466.47;;;10.72;100.00
13767;BME280;47980;48.794;9.176;2023-03-20T00:24:18;98464.28;;;10.65;100.00
13767;BME280;47980;48.794;9.176;2023-03-20T00:26:51;98461.81;;;10.51;100.00
13767;BME280;47980;48.794;9.176;2023-03-20T00:29:25;98467.56;;;10.62;100.00
13767;BME280;47980;48.794;9.176;2023-03-20T00:31:58;98465.22;;;10.69;100.00
13767;BME280;47980;48.794;9.176;2023-03-20T00:34:29;98471.16;;;10.75;100.00
13767;BME280;47980;48.794;9.176;2023-03-20T00:37:01;98473.50;;;10.68;100.00
13767;BME280;47980;48.794;9.176;2023-03-20T00:39:33;98467.72;;;10.66;100.00
13767;BME280;47980;48.794;9.176;2023-03-20T00:42:09;98473.31;;;10.73;100.00
13767;BME280;47980;48.794;9.176;2023-03-20T00:44:47;98482.69;;;10.79;100.00
13767;BME280;47980;48.794;9.176;2023-03-20T00:47:22;98476.41;;;10.83;100.00
13767;BME280;47980;48.794;9.176;2023-03-20T00:49:54;98480.03;;;10.70;100.00
13767;BME280;47980;48.794;9.176;2023-03-20T00:52:27;98485.97;;;10.67;100.00
13767;BME280;47980;48.794;9.176;2023-03-20T00:54:59;98488.13;;;10.74;100.00
13767;BME280;47980;48.794;9.176;2023-03-20T00:57:36;98489.25;;;10.73;100.00
13767;BME280;47980;48.794;9.176;2023-03-20T01:00:20;98485.66;;;10.69;100.00
13767;BME280;47980;48.794;9.176;2023-03-20T01:02:54;98482.22;;;10.68;100.00
13767;BME280;47980;48.794;9.176;2023-03-20T01:05:27;98491.91;;;10.64;100.00
13767;BME280;47980;48.794;9.176;2023-03-20T01:07:58;98480.69;;;10.50;100.00
13767;BME280;47980;48.794;9.176;2023-03-20T01:10:31;98474.59;;;10.58;100.00
13767;BME280;47980;48.794;9.176;2023-03-20T01:13:05;98477.56;;;10.56;100.00
13767;BME280;47980;48.794;9.176;2023-03-20T01:15:43;98478.34;;;10.57;100.00
13767;BME280;47980;48.794;9.176;2023-03-20T01:18:15;98481.47;;;10.59;100.00
13767;BME280;47980;48.794;9.176;2023-03-20T01:20:48;98479.44;;;10.47;100.00
13767;BME280;47980;48.794;9.176;2023-03-20T01:23:20;98474.00;;;10.44;100.00
13767;BME280;47980;48.794;9.176;2023-03-20T01:25:53;98487.41;;;10.47;100.00
13767;BME280;47980;48.794;9.176;2023-03-20T01:28:25;98484.59;;;10.44;100.00
13767;BME280;47980;48.794;9.176;2023-03-20T01:30:59;98482.09;;;10.47;100.00
13767;BME280;47980;48.794;9.176;2023-03-20T01:33:31;98488.16;;;10.56;100.00
13767;BME280;47980;48.794;9.176;2023-03-20T01:36:02;98489.59;;;10.54;100.00
13767;BME280;47980;48.794;9.176;2023-03-20T01:38:34;98491.00;;;10.51;100.00
13767;BME280;47980;48.794;9.176;2023-03-20T01:41:07;98489.09;;;10.52;100.00
13767;BME280;47980;48.794;9.176;2023-03-20T01:43:43;98492.84;;;10.59;100.00
13767;BME280;47980;48.794;9.176;2023-03-20T01:46:19;98491.59;;;10.48;100.00
13767;BME280;47980;48.794;9.176;2023-03-20T01:52:07;98496.94;;;10.40;100.00
13767;BME280;47980;48.794;9.176;2023-03-20T01:54:38;98496.44;;;10.38;100.00
13767;BME280;47980;48.794;9.176;2023-03-20T01:57:13;98499.56;;;10.31;100.00
13767;BME280;47980;48.794;9.176;2023-03-20T01:59:48;98491.31;;;10.41;100.00
13767;BME280;47980;48.794;9.176;2023-03-20T02:02:24;98491.47;;;10.45;100.00
13767;BME280;47980;48.794;9.176;2023-03-20T02:05:00;98496.75;;;10.45;100.00
13767;BME280;47980;48.794;9.176;2023-03-20T02:07:33;98502.69;;;10.33;100.00
13767;BME280;47980;48.794;9.176;2023-03-20T02:10:10;98504.56;;;10.41;100.00
13767;BME280;47980;48.794;9.176;2023-03-20T02:12:45;98508.47;;;10.26;100.00
13767;BME280;47980;48.794;9.176;2023-03-20T02:15:17;98512.38;;;10.38;100.00
13767;BME280;47980;48.794;9.176;2023-03-20T02:17:50;98510.03;;;10.36;100.00
13767;BME280;47980;48.794;9.176;2023-03-20T02:20:32;98515.00;;;10.38;100.00
13767;BME280;47980;48.794;9.176;2023-03-20T02:23:46;98511.44;;;10.33;100.00
13767;BME280;47980;48.794;9.176;2023-03-20T02:26:40;98517.97;;;10.27;100.00
13767;BME280;47980;48.794;9.176;2023-03-20T02:29:53;98516.28;;;10.31;100.00
13767;BME280;47980;48.794;9.176;2023-03-20T02:38:57;98521.59;;;10.31;100.00
13767;BME280;47980;48.794;9.176;2023-03-20T02:41:36;98524.84;;;10.28;100.00
13767;BME280;47980;48.794;9.176;2023-03-20T02:44:12;98519.38;;;10.25;99.45
13767;BME280;47980;48.794;9.176;2023-03-20T02:46:53;98522.03;;;10.25;99.09
13767;BME280;47980;48.794;9.176;2023-03-20T02:49:44;98519.84;;;10.27;98.89
13767;BME280;47980;48.794;9.176;2023-03-20T02:52:22;98517.69;;;10.29;99.00
13767;BME280;47980;48.794;9.176;2023-03-20T02:55:04;98516.56;;;10.30;98.61
13767;BME280;47980;48.794;9.176;2023-03-20T02:57:45;98515.13;;;10.24;96.81
13767;BME280;47980;48.794;9.176;2023-03-20T03:00:23;98519.84;;;10.27;98.52
13767;BME280;47980;48.794;9.176;2023-03-20T03:03:03;98518.09;;;10.22;99.02
13767;BME280;47980;48.794;9.176;2023-03-20T03:17:49;98527.81;;;10.27;97.39
13767;BME280;47980;48.794;9.176;2023-03-20T03:20:22;98521.09;;;10.29;96.95
13767;BME280;47980;48.794;9.176;2023-03-20T03:22:55;98525.56;;;10.20;96.89
13767;BME280;47980;48.794;9.176;2023-03-20T03:28:56;98533.69;;;10.24;95.34
13767;BME280;47980;48.794;9.176;2023-03-20T03:31:28;98535.13;;;10.30;95.10
13767;BME280;47980;48.794;9.176;2023-03-20T03:34:03;98535.13;;;10.30;95.45
13767;BME280;47980;48.794;9.176;2023-03-20T03:36:39;98541.06;;;10.27;93.66
13767;BME280;47980;48.794;9.176;2023-03-20T03:39:21;98536.25;;;10.29;94.68
13767;BME280;47980;48.794;9.176;2023-03-20T03:42:01;98545.09;;;10.24;95.20
13767;BME280;47980;48.794;9.176;2023-03-20T03:44:40;98540.88;;;10.23;93.78
13767;BME280;47980;48.794;9.176;2023-03-20T03:47:18;98541.66;;;10.15;95.13
13767;BME280;47980;48.794;9.176;2023-03-20T03:49:57;98537.16;;;10.24;96.23
13767;BME280;47980;48.794;9.176;2023-03-20T03:52:31;98548.72;;;10.28;94.95
13767;BME280;47980;48.794;9.176;2023-03-20T03:55:07;98552.47;;;10.36;96.96
13767;BME280;47980;48.794;9.176;2023-03-20T03:57:44;98547.63;;;10.29;98.57
13767;BME280;47980;48.794;9.176;2023-03-20T04:00:19;98543.72;;;10.27;99.33
13767;BME280;47980;48.794;9.176;2023-03-20T04:02:55;98547.94;;;10.28;98.82
13767;BME280;47980;48.794;9.176;2023-03-20T04:05:30;98548.41;;;10.30;99.89
13767;BME280;47980;48.794;9.176;2023-03-20T04:08:04;98555.56;;;10.38;98.89
13767;BME280;47980;48.794;9.176;2023-03-20T04:10:36;98557.41;;;10.20;100.00
13767;BME280;47980;48.794;9.176;2023-03-20T04:13:08;98556.47;;;10.25;100.00
13767;BME280;47980;48.794;9.176;2023-03-20T04:15:39;98563.66;;;10.24;98.93
13767;BME280;47980;48.794;9.176;2023-03-20T04:18:13;98554.19;;;10.32;98.00
13767;BME280;47980;48.794;9.176;2023-03-20T04:20:47;98554.47;;;10.30;98.56
13767;BME280;47980;48.794;9.176;2023-03-20T04:25:54;98556.97;;;10.27;100.00
13767;BME280;47980;48.794;9.176;2023-03-20T04:28:26;98553.50;;;10.18;98.37
13767;BME280;47980;48.794;9.176;2023-03-20T04:30:58;98554.91;;;10.24;98.34
13767;BME280;47980;48.794;9.176;2023-03-20T04:33:30;98542.44;;;10.24;97.88
13767;BME280;47980;48.794;9.176;2023-03-20T04:36:05;98540.09;;;10.23;98.16
13767;BME280;47980;48.794;9.176;2023-03-20T04:38:37;98540.56;;;10.16;100.00
13767;BME280;47980;48.794;9.176;2023-03-20T04:41:09;98536.84;;;10.17;99.43
13767;BME280;47980;48.794;9.176;2023-03-20T04:43:40;98540.56;;;10.16;99.90
13767;BME280;47980;48.794;9.176;2023-03-20T04:46:12;98538.34;;;10.01;99.98
13767;BME280;47980;48.794;9.176;2023-03-20T04:48:44;98542.22;;;9.95;99.27
13767;BME280;47980;48.794;9.176;2023-03-20T04:51:17;98548.34;;;9.95;99.03
13767;BME280;47980;48.794;9.176;2023-03-20T04:53:49;98552.69;;;10.00;99.63
13767;BME280;47980;48.794;9.176;2023-03-20T04:56:20;98553.63;;;9.95;98.81
13767;BME280;47980;48.794;9.176;2023-03-20T04:58:52;98555.47;;;9.95;99.02
13767;BME280;47980;48.794;9.176;2023-03-20T05:01:23;98564.22;;;9.95;97.72
13767;BME280;47980;48.794;9.176;2023-03-20T05:03:55;98565.63;;;9.93;98.65
13767;BME280;47980;48.794;9.176;2023-03-20T05:06:31;98567.81;;;9.99;97.01
13767;BME280;47980;48.794;9.176;2023-03-20T05:09:03;98562.97;;;10.01;96.97
13767;BME280;47980;48.794;9.176;2023-03-20T05:11:35;98575.31;;;10.06;97.37
13767;BME280;47980;48.794;9.176;2023-03-20T05:14:06;98569.22;;;10.05;96.51
13767;BME280;47980;48.794;9.176;2023-03-20T05:16:38;98577.50;;;10.12;96.90
13767;BME280;47980;48.794;9.176;2023-03-20T05:19:10;98578.75;;;10.15;98.16
13767;BME280;47980;48.794;9.176;2023-03-20T05:21:43;98587.03;;;10.22;98.60
13767;BME280;47980;48.794;9.176;2023-03-20T05:24:14;98594.66;;;10.06;98.32
13767;BME280;47980;48.794;9.176;2023-03-20T05:26:46;98590.25;;;10.02;98.76
13767;BME280;47980;48.794;9.176;2023-03-20T05:29:18;98592.63;;;10.12;98.13
13767;BME280;47980;48.794;9.176;2023-03-20T05:31:50;98592.00;;;10.15;97.83
13767;BME280;47980;48.794;9.176;2023-03-20T05:34:21;98580.63;;;10.15;97.52
13767;BME280;47980;48.794;9.176;2023-03-20T05:36:55;98578.75;;;10.15;97.66
13767;BME280;47980;48.794;9.176;2023-03-20T05:39:26;98576.44;;;10.13;97.53
13767;BME280;47980;48.794;9.176;2023-03-20T05:42:02;98581.75;;;10.22;98.39
13767;BME280;47980;48.794;9.176;2023-03-20T05:44:34;98573.47;;;10.24;99.24
13767;BME280;47980;48.794;9.176;2023-03-20T05:47:06;98589.22;;;10.20;99.25
13767;BME280;47980;48.794;9.176;2023-03-20T05:49:37;98586.38;;;10.17;98.75
13767;BME280;47980;48.794;9.176;2023-03-20T05:52:10;98586.06;;;10.01;99.05
13767;BME280;47980;48.794;9.176;2023-03-20T05:54:42;98578.56;;;9.94;98.39
13767;BME280;47980;48.794;9.176;2023-03-20T05:57:14;98587.00;;;9.96;97.85
13767;BME280;47980;48.794;9.176;2023-03-20T05:59:46;98592.34;;;10.13;96.54
13767;BME280;47980;48.794;9.176;2023-03-20T06:02:18;98596.53;;;10.06;97.36
13767;BME280;47980;48.794;9.176;2023-03-20T06:04:49;98607.75;;;10.03;96.35
13767;BME280;47980;48.794;9.176;2023-03-20T06:07:23;98608.69;;;10.07;97.23
13767;BME280;47980;48.794;9.176;2023-03-20T06:09:54;98604.31;;;10.11;95.71
13767;BME280;47980;48.794;9.176;2023-03-20T06:12:26;98608.16;;;10.36;95.90
13767;BME280;47980;48.794;9.176;2023-03-20T06:14:58;98614.56;;;10.44;95.87
13767;BME280;47980;48.794;9.176;2023-03-20T06:17:30;98611.75;;;10.40;97.33
13767;BME280;47980;48.794;9.176;2023-03-20T06:20:01;98613.47;;;10.36;96.82
13767;BME280;47980;48.794;9.176;2023-03-20T06:22:47;98614.72;;;10.39;96.77
13767;BME280;47980;48.794;9.176;2023-03-20T06:25:19;98612.34;;;10.37;95.64
13767;BME280;47980;48.794;9.176;2023-03-20T06:27:51;98618.00;;;10.44;94.67
13767;BME280;47980;48.794;9.176;2023-03-20T06:30:27;98611.44;;;10.50;92.84
13767;BME280;47980;48.794;9.176;2023-03-20T06:32:59;98608.34;;;10.66;92.43
13767;BME280;47980;48.794;9.176;2023-03-20T06:35:30;98611.91;;;10.87;92.79
13767;BME280;47980;48.794;9.176;2023-03-20T06:38:12;98613.16;;;10.98;91.92
13767;BME280;47980;48.794;9.176;2023-03-20T06:40:44;98601.75;;;11.06;91.58
13767;BME280;47980;48.794;9.176;2023-03-20T06:43:15;98607.34;;;11.22;91.95
13767;BME280;47980;48.794;9.176;2023-03-20T06:45:47;98601.09;;;11.18;91.65
13767;BME280;47980;48.794;9.176;2023-03-20T06:48:24;98603.41;;;11.28;89.07
13767;BME280;47980;48.794;9.176;2023-03-20T06:50:56;98606.69;;;11.34;90.97
13767;BME280;47980;48.794;9.176;2023-03-20T06:53:29;98603.91;;;11.30;89.23
13767;BME280;47980;48.794;9.176;2023-03-20T06:56:00;98594.53;;;11.24;88.38
13767;BME280;47980;48.794;9.176;2023-03-20T06:58:37;98602.50;;;11.33;87.64
13767;BME280;47980;48.794;9.176;2023-03-20T07:01:09;98606.66;;;11.51;85.80
13767;BME280;47980;48.794;9.176;2023-03-20T07:03:41;98607.44;;;11.52;85.61
13767;BME280;47980;48.794;9.176;2023-03-20T07:06:12;98606.56;;;11.77;85.48
13767;BME280;47980;48.794;9.176;2023-03-20T07:08:53;98617.91;;;11.95;83.31
13767;BME280;47980;48.794;9.176;2023-03-20T07:11:25;98618.63;;;12.13;82.62
13767;BME280;47980;48.794;9.176;2023-03-20T07:13:57;98619.34;;;12.22;81.78
13767;BME280;47980;48.794;9.176;2023-03-20T07:16:37;98630.66;;;12.40;79.60
13767;BME280;47980;48.794;9.176;2023-03-20T07:19:09;98630.22;;;12.38;79.21
13767;BME280;47980;48.794;9.176;2023-03-20T07:21:42;98633.44;;;12.44;79.77
13767;BME280;47980;48.794;9.176;2023-03-20T07:24:21;98633.72;;;12.51;79.21
13767;BME280;47980;48.794;9.176;2023-03-20T07:26:52;98640.47;;;11.89;80.26
13767;BME280;47980;48.794;9.176;2023-03-20T07:29:24;98644.72;;;11.73;80.48
13767;BME280;47980;48.794;9.176;2023-03-20T07:31:56;98643.19;;;11.63;83.43
13767;BME280;47980;48.794;9.176;2023-03-20T07:34:36;98644.00;;;11.55;84.92
13767;BME280;47980;48.794;9.176;2023-03-20T07:37:08;98645.16;;;11.75;84.93
13767;BME280;47980;48.794;9.176;2023-03-20T07:39:43;98638.44;;;11.77;84.15
13767;BME280;47980;48.794;9.176;2023-03-20T07:42:19;98633.50;;;12.06;84.30
13767;BME280;47980;48.794;9.176;2023-03-20T07:44:51;98634.94;;;12.03;82.15
13767;BME280;47980;48.794;9.176;2023-03-20T07:47:22;98636.53;;;11.95;81.07
13767;BME280;47980;48.794;9.176;2023-03-20T07:49:54;98638.34;;;12.33;81.16
13767;BME280;47980;48.794;9.176;2023-03-20T07:52:34;98635.97;;;12.11;82.30
13767;BME280;47980;48.794;9.176;2023-03-20T07:55:07;98636.75;;;12.11;80.05
13767;BME280;47980;48.794;9.176;2023-03-20T07:57:40;98641.31;;;12.11;80.36
13767;BME280;47980;48.794;9.176;2023-03-20T08:00:13;98643.69;;;12.03;80.30
13767;BME280;47980;48.794;9.176;2023-03-20T08:02:45;98636.31;;;12.60;78.63
13767;BME280;47980;48.794;9.176;2023-03-20T08:05:18;98638.66;;;12.82;77.33
13767;BME280;47980;48.794;9.176;2023-03-20T08:07:58;98644.06;;;13.07;74.31
13767;BME280;47980;48.794;9.176;2023-03-20T08:10:34;98647.16;;;12.96;75.28
13767;BME280;47980;48.794;9.176;2023-03-20T08:13:08;98643.03;;;12.99;75.28
13767;BME280;47980;48.794;9.176;2023-03-20T08:15:39;98638.03;;;13.18;75.15
13767;BME280;47980;48.794;9.176;2023-03-20T08:18:13;98649.69;;;12.72;76.90
13767;BME280;47980;48.794;9.176;2023-03-20T08:20:45;98648.91;;;12.71;77.45
13767;BME280;47980;48.794;9.176;2023-03-20T08:23:17;98644.81;;;12.23;77.34
13767;BME280;47980;48.794;9.176;2023-03-20T08:25:51;98643.19;;;12.10;78.26
13767;BME280;47980;48.794;9.176;2023-03-20T08:28:24;98650.38;;;12.39;78.23
13767;BME280;47980;48.794;9.176;2023-03-20T08:30:56;98651.63;;;12.63;76.79
13767;BME280;47980;48.794;9.176;2023-03-20T08:33:27;98650.84;;;12.62;76.03
13767;BME280;47980;48.794;9.176;2023-03-20T08:35:59;98651.63;;;13.05;74.98
13767;BME280;47980;48.794;9.176;2023-03-20T08:38:31;98651.94;;;13.03;74.76
13767;BME280;47980;48.794;9.176;2023-03-20T08:41:05;98646.56;;;13.33;75.94
13767;BME280;47980;48.794;9.176;2023-03-20T08:43:36;98642.38;;;13.68;72.73
13767;BME280;47980;48.794;9.176;2023-03-20T08:46:08;98651.19;;;13.36;71.26
13767;BME280;47980;48.794;9.176;2023-03-20T08:48:40;98636.03;;;13.61;71.80
13767;BME280;47980;48.794;9.176;2023-03-20T08:51:11;98645.34;;;13.21;72.94
13767;BME280;47980;48.794;9.176;2023-03-20T08:53:43;98638.28;;;13.71;71.30
13767;BME280;47980;48.794;9.176;2023-03-20T08:56:17;98635.50;;;13.80;71.30
13767;BME280;47980;48.794;9.176;2023-03-20T08:58:48;98635.41;;;13.88;68.61
13767;BME280;47980;48.794;9.176;2023-03-20T09:01:22;98635.19;;;14.18;70.25
13767;BME280;47980;48.794;9.176;2023-03-20T09:03:53;98638.75;;;13.97;68.20
13767;BME280;47980;48.794;9.176;2023-03-20T09:06:25;98636.19;;;14.26;67.11
13767;BME280;47980;48.794;9.176;2023-03-20T09:08:57;98638.09;;;14.01;68.55
13767;BME280;47980;48.794;9.176;2023-03-20T09:11:30;98638.66;;;14.31;67.70
13767;BME280;47980;48.794;9.176;2023-03-20T09:14:02;98640.41;;;14.39;67.73
13767;BME280;47980;48.794;9.176;2023-03-20T09:16:34;98638.94;;;14.66;66.57
13767;BME280;47980;48.794;9.176;2023-03-20T09:19:05;98644.63;;;15.21;64.47
13767;BME280;47980;48.794;9.176;2023-03-20T09:21:38;98648.53;;;15.23;66.06
13767;BME280;47980;48.794;9.176;2023-03-20T09:24:09;98654.66;;;15.24;63.62
13767;BME280;47980;48.794;9.176;2023-03-20T09:26:45;98647.94;;;15.30;60.66
13767;BME280;47980;48.794;9.176;2023-03-20T09:29:17;98641.81;;;14.73;62.45
13767;BME280;47980;48.794;9.176;2023-03-20T09:31:49;98645.31;;;15.17;62.12
13767;BME280;47980;48.794;9.176;2023-03-20T09:34:20;98635.16;;;14.95;62.29
13767;BME280;47980;48.794;9.176;2023-03-20T09:36:53;98642.38;;;14.66;62.15
13767;BME280;47980;48.794;9.176;2023-03-20T09:39:25;98640.19;;;14.32;64.46
13767;BME280;47980;48.794;9.176;2023-03-20T09:42:09;98650.47;;;14.82;65.58
13767;BME280;47980;48.794;9.176;2023-03-20T09:44:53;98639.06;;;14.57;63.59
13767;BME280;47980;48.794;9.176;2023-03-20T09:47:34;98642.97;;;15.44;60.98
13767;BME280;47980;48.794;9.176;2023-03-20T09:50:16;98643.19;;;15.39;60.75
13767;BME280;47980;48.794;9.176;2023-03-20T09:52:56;98647.56;;;15.59;59.69
13767;BME280;47980;48.794;9.176;2023-03-20T09:55:33;98650.88;;;15.69;60.21
13767;BME280;47980;48.794;9.176;2023-03-20T09:58:11;98649.31;;;15.68;59.62
13767;BME280;47980;48.794;9.176;2023-03-20T10:00:44;98640.94;;;16.01;59.58
13767;BME280;47980;48.794;9.176;2023-03-20T10:03:19;98646.66;;;15.83;58.68
13767;BME280;47980;48.794;9.176;2023-03-20T10:05:56;98655.66;;;15.63;59.04
13767;BME280;47980;48.794;9.176;2023-03-20T10:08:33;98647.16;;;15.73;58.43
13767;BME280;47980;48.794;9.176;2023-03-20T10:11:19;98646.91;;;15.34;59.68
13767;BME280;47980;48.794;9.176;2023-03-20T10:14:05;98646.97;;;15.22;60.27
13767;BME280;47980;48.794;9.176;2023-03-20T10:16:45;98652.47;;;14.85;61.89
13767;BME280;47980;48.794;9.176;2023-03-20T10:19:23;98652.16;;;14.75;63.26
13767;BME280;47980;48.794;9.176;2023-03-20T10:22:12;98645.63;;;14.35;62.44
13767;BME280;47980;48.794;9.176;2023-03-20T10:24:49;98648.41;;;14.39;63.18
13767;BME280;47980;48.794;9.176;2023-03-20T10:27:23;98659.66;;;14.08;64.89
13767;BME280;47980;48.794;9.176;2023-03-20T10:30:06;98660.44;;;14.08;64.40
13767;BME280;47980;48.794;9.176;2023-03-20T10:32:47;98661.50;;;13.83;66.08
13767;BME280;47980;48.794;9.176;2023-03-20T10:35:26;98659.84;;;13.90;66.12
13767;BME280;47980;48.794;9.176;2023-03-20T10:38:09;98662.19;;;13.80;66.07
13767;BME280;47980;48.794;9.176;2023-03-20T10:40:43;98660.28;;;13.68;66.79
13767;BME280;47980;48.794;9.176;2023-03-20T10:43:18;98662.31;;;13.17;69.93
13767;BME280;47980;48.794;9.176;2023-03-20T10:45:57;98666.63;;;13.30;70.06
13767;BME280;47980;48.794;9.176;2023-03-20T10:48:32;98664.16;;;13.25;70.33
13767;BME280;47980;48.794;9.176;2023-03-20T10:51:09;98654.44;;;13.41;68.74
13767;BME280;47980;48.794;9.176;2023-03-20T10:53:46;98654.16;;;13.55;69.43
13767;BME280;47980;48.794;9.176;2023-03-20T10:56:25;98647.38;;;13.24;68.42
13767;BME280;47980;48.794;9.176;2023-03-20T10:59:02;98647.44;;;13.37;68.21
13767;BME280;47980;48.794;9.176;2023-03-20T11:01:36;98641.63;;;13.68;69.89
13767;BME280;47980;48.794;9.176;2023-03-20T11:04:08;98639.59;;;13.65;68.16
13767;BME280;47980;48.794;9.176;2023-03-20T11:06:43;98641.41;;;13.73;68.19
13767;BME280;47980;48.794;9.176;2023-03-20T11:09:18;98643.53;;;14.04;66.83
13767;BME280;47980;48.794;9.176;2023-03-20T11:11:51;98642.88;;;14.32;65.40
13767;BME280;47980;48.794;9.176;2023-03-20T11:14:32;98641.75;;;14.33;65.30
13767;BME280;47980;48.794;9.176;2023-03-20T11:17:05;98647.06;;;14.33;66.90
13767;BME280;47980;48.794;9.176;2023-03-20T11:19:38;98640.19;;;14.19;67.63
13767;BME280;47980;48.794;9.176;2023-03-20T11:22:22;98641.28;;;14.43;66.00
13767;BME280;47980;48.794;9.176;2023-03-20T11:24:56;98650.66;;;14.00;67.27
13767;BME280;47980;48.794;9.176;2023-03-20T11:27:31;98659.31;;;13.97;68.63
13767;BME280;47980;48.794;9.176;2023-03-20T11:30:05;98652.31;;;13.92;68.37
13767;BME280;47980;48.794;9.176;2023-03-20T11:32:45;98652.53;;;14.24;69.04
13767;BME280;47980;48.794;9.176;2023-03-20T11:35:20;98650.41;;;14.30;68.00
13767;BME280;47980;48.794;9.176;2023-03-20T11:37:54;98650.13;;;14.84;67.21
13767;BME280;47980;48.794;9.176;2023-03-20T11:40:30;98647.91;;;14.74;64.21
13767;BME280;47980;48.794;9.176;2023-03-20T11:43:07;98642.19;;;14.35;66.59
13767;BME280;47980;48.794;9.176;2023-03-20T11:45:41;98637.84;;;14.55;65.82
13767;BME280;47980;48.794;9.176;2023-03-20T11:48:18;98649.63;;;14.05;67.12
13767;BME280;47980;48.794;9.176;2023-03-20T11:50:56;98642.97;;;14.60;64.92
13767;BME280;47980;48.794;9.176;2023-03-20T11:53:32;98641.53;;;14.90;64.38
13767;BME280;47980;48.794;9.176;2023-03-20T11:56:08;98636.00;;;14.83;64.07
13767;BME280;47980;48.794;9.176;2023-03-20T11:58:49;98640.13;;;15.09;63.52
13767;BME280;47980;48.794;9.176;2023-03-20T12:01:24;98643.28;;;14.99;63.47
13767;BME280;47980;48.794;9.176;2023-03-20T12:04:01;98638.59;;;15.08;63.44
13767;BME280;47980;48.794;9.176;2023-03-20T12:06:42;98628.41;;;15.13;61.82
13767;BME280;47980;48.794;9.176;2023-03-20T12:09:25;98637.34;;;15.05;62.30
13767;BME280;47980;48.794;9.176;2023-03-20T12:12:01;98638.56;;;14.80;62.39
13767;BME280;47980;48.794;9.176;2023-03-20T12:14:39;98630.06;;;14.90;62.10
13767;BME280;47980;48.794;9.176;2023-03-20T12:17:28;98631.66;;;15.07;61.10
13767;BME280;47980;48.794;9.176;2023-03-20T12:20:11;98625.63;;;15.10;61.65
13767;BME280;47980;48.794;9.176;2023-03-20T12:22:50;98625.63;;;14.29;64.35
13767;BME280;47980;48.794;9.176;2023-03-20T12:25:25;98617.03;;;14.88;62.03
13767;BME280;47980;48.794;9.176;2023-03-20T12:28:02;98616.47;;;14.55;62.43
13767;BME280;47980;48.794;9.176;2023-03-20T12:30:51;98615.38;;;14.96;61.92
13767;BME280;47980;48.794;9.176;2023-03-20T12:33:33;98615.28;;;14.80;60.70
13767;BME280;47980;48.794;9.176;2023-03-20T12:36:14;98611.69;;;15.16;60.41
13767;BME280;47980;48.794;9.176;2023-03-20T12:38:47;98609.72;;;15.73;58.48
13767;BME280;47980;48.794;9.176;2023-03-20T12:41:23;98603.53;;;16.04;57.79
13767;BME280;47980;48.794;9.176;2023-03-20T12:44:11;98604.00;;;15.59;58.36
13767;BME280;47980;48.794;9.176;2023-03-20T12:46:50;98599.91;;;15.33;57.90
13767;BME280;47980;48.794;9.176;2023-03-20T12:49:34;98600.47;;;15.71;58.76
13767;BME280;47980;48.794;9.176;2023-03-20T12:52:21;98597.38;;;15.84;56.06
13767;BME280;47980;48.794;9.176;2023-03-20T12:58:04;98596.28;;;15.41;57.99
13767;BME280;47980;48.794;9.176;2023-03-20T13:00:40;98592.63;;;15.78;56.19
13767;BME280;47980;48.794;9.176;2023-03-20T13:03:29;98592.25;;;15.79;55.57
13767;BME280;47980;48.794;9.176;2023-03-20T13:06:09;98590.22;;;15.13;57.76
13767;BME280;47980;48.794;9.176;2023-03-20T13:08:54;98581.66;;;15.67;56.55
13767;BME280;47980;48.794;9.176;2023-03-20T13:11:35;98583.66;;;15.70;57.29
13767;BME280;47980;48.794;9.176;2023-03-20T13:14:12;98584.66;;;15.50;57.30
13767;BME280;47980;48.794;9.176;2023-03-20T13:16:51;98584.97;;;15.16;57.58
13767;BME280;47980;48.794;9.176;2023-03-20T13:19:32;98579.03;;;15.23;58.38
13767;BME280;47980;48.794;9.176;2023-03-20T13:22:14;98577.22;;;14.83;58.59
13767;BME280;47980;48.794;9.176;2023-03-20T13:24:54;98569.47;;;15.54;56.67
13767;BME280;47980;48.794;9.176;2023-03-20T13:27:35;98563.41;;;16.04;54.86
13767;BME280;47980;48.794;9.176;2023-03-20T13:30:15;98559.97;;;15.56;55.88
13767;BME280;47980;48.794;9.176;2023-03-20T13:32:55;98562.66;;;15.40;56.68
13767;BME280;47980;48.794;9.176;2023-03-20T13:35:35;98558.38;;;15.36;57.60
13767;BME280;47980;48.794;9.176;2023-03-20T13:38:14;98560.22;;;15.20;57.90
13767;BME280;47980;48.794;9.176;2023-03-20T13:40:52;98550.84;;;15.41;57.60
13767;BME280;47980;48.794;9.176;2023-03-20T13:43:31;98553.22;;;14.99;58.53
13767;BME280;47980;48.794;9.176;2023-03-20T13:46:06;98545.22;;;15.47;57.13
13767;BME280;47980;48.794;9.176;2023-03-20T13:48:41;98549.81;;;15.46;56.71
13767;BME280;47980;48.794;9.176;2023-03-20T13:51:20;98550.41;;;15.24;57.46
13767;BME280;47980;48.794;9.176;2023-03-20T13:54:02;98543.47;;;14.91;58.23
13767;BME280;47980;48.794;9.176;2023-03-20T13:56:49;98537.28;;;15.03;58.17
13767;BME280;47980;48.794;9.176;2023-03-20T13:59:38;98534.28;;;15.20;57.87
13767;BME280;47980;48.794;9.176;2023-03-20T14:05:11;98530.25;;;15.58;56.79
13767;BME280;47980;48.794;9.176;2023-03-20T14:07:46;98524.28;;;15.80;55.44
13767;BME280;47980;48.794;9.176;2023-03-20T14:10:35;98528.41;;;15.46;56.38
13767;BME280;47980;48.794;9.176;2023-03-20T14:13:13;98535.34;;;14.87;58.12
13767;BME280;47980;48.794;9.176;2023-03-20T14:15:53;98533.28;;;14.53;59.16